Time;durP1;ratioP1;P1;durP2;ratioP2;P2;SDS_P1;SDS_P2;PMS_P1;PMS_P2;Temp;Humidity;BMP_temperature;BMP_pressure;BME280_temperature;BME280_humidity;BME280_pressure;Samples;Min_cycle;Max_cycle;Signal;HPM_P1;HPM_P2
2022/04/26 03:36:07;;;;;;;32.45;14.68;;;;;;;;;;6328543;22;20014;-57
2022/04/26 03:38:33;;;;;;;38.08;15.27;;;;;;;;;;6329251;22;20003;-56
2022/04/26 03:40:58;;;;;;;34.72;16.80;;;;;;;;;;6329738;22;20023;-57
2022/04/26 03:43:23;;;;;;;33.30;15.27;;;;;;;;;;6329577;22;20027;-56
2022/04/26 03:45:48;;;;;;;36.60;15.73;;;;;;;;;;6300814;22;20038;-58
2022/04/26 03:48:14;;;;;;;35.00;14.85;;;;;;;;;;6328418;22;20030;-58
2022/04/26 03:50:39;;;;;;;48.83;17.45;;;;;;;;;;6327918;22;20010;-57
2022/04/26 03:53:04;;;;;;;39.92;16.20;;;;;;;;;;6330734;22;20010;-56
2022/04/26 03:55:30;;;;;;;34.97;15.77;;;;;;;;;;6327409;22;20018;-57
2022/04/26 03:57:57;;;;;;;41.00;16.00;;;;;;;;;;6330099;22;20018;-55
2022/04/26 04:00:22;;;;;;;54.13;17.63;;;;;;;;;;6327766;22;20060;-55
2022/04/26 04:02:47;;;;;;;31.00;15.90;;;;;;;;;;6330631;22;20011;-58
2022/04/26 04:05:13;;;;;;;34.40;16.17;;;;;;;;;;6326301;22;20041;-57
2022/04/26 04:07:38;;;;;;;39.00;15.90;;;;;;;;;;6329570;22;20343;-57
2022/04/26 04:10:03;;;;;;;43.58;17.67;;;;;;;;;;6328768;22;20078;-55
2022/04/26 04:12:29;;;;;;;34.72;14.90;;;;;;;;;;6329438;22;20011;-57
2022/04/26 04:14:54;;;;;;;33.50;14.90;;;;;;;;;;6300829;22;20241;-58
2022/04/26 04:17:19;;;;;;;37.00;15.82;;;;;;;;;;6329327;22;20088;-57
2022/04/26 04:19:45;;;;;;;31.88;14.40;;;;;;;;;;6328416;22;20010;-58
2022/04/26 04:22:10;;;;;;;27.27;14.20;;;;;;;;;;6330866;22;20041;-58
2022/04/26 04:24:35;;;;;;;31.33;13.48;;;;;;;;;;6328465;22;20033;-56
2022/04/26 04:27:01;;;;;;;27.10;12.82;;;;;;;;;;6329433;22;20023;-58
2022/04/26 04:29:26;;;;;;;33.58;14.23;;;;;;;;;;6328327;22;20011;-58
2022/04/26 04:31:51;;;;;;;38.35;14.77;;;;;;;;;;6330110;22;20033;-57
2022/04/26 04:34:17;;;;;;;31.98;14.48;;;;;;;;;;6327276;22;20245;-57
2022/04/26 04:36:42;;;;;;;32.40;14.32;;;;;;;;;;6330987;22;20015;-55
2022/04/26 04:39:07;;;;;;;30.05;12.93;;;;;;;;;;6327203;22;20011;-56
2022/04/26 04:41:36;;;;;;;37.47;15.20;;;;;;;;;;6329383;22;20050;-58
2022/04/26 04:44:02;;;;;;;41.08;13.98;;;;;;;;;;6328460;22;20031;-56
2022/04/26 04:46:27;;;;;;;25.42;13.27;;;;;;;;;;6329271;22;20019;-57
2022/04/26 04:48:53;;;;;;;40.28;16.00;;;;;;;;;;6327967;22;20041;-56
2022/04/26 04:51:18;;;;;;;28.17;13.30;;;;;;;;;;6329626;22;20079;-56
2022/04/26 04:53:43;;;;;;;27.17;13.27;;;;;;;;;;6329350;22;20003;-58
2022/04/26 04:56:09;;;;;;;27.30;14.15;;;;;;;;;;6329643;22;20015;-57
2022/04/26 04:58:34;;;;;;;34.30;14.95;;;;;;;;;;6300121;22;20018;-57
2022/04/26 05:00:59;;;;;;;35.55;13.30;;;;;;;;;;6331022;22;20035;-57
2022/04/26 05:03:25;;;;;;;36.15;15.07;;;;;;;;;;6327871;22;20169;-57
2022/04/26 05:05:50;;;;;;;35.55;13.57;;;;;;;;;;6329953;22;20006;-57
2022/04/26 05:08:15;;;;;;;31.55;13.38;;;;;;;;;;6326481;22;20022;-56
2022/04/26 05:10:40;;;;;;;27.33;13.60;;;;;;;;;;6330065;22;20011;-56
2022/04/26 05:13:06;;;;;;;28.52;14.57;;;;;;;;;;6327023;22;20378;-58
2022/04/26 05:15:32;;;;;;;32.08;13.10;;;;;;;;;;6329160;22;20011;-57
2022/04/26 05:17:57;;;;;;;28.08;11.75;;;;;;;;;;6327698;22;20022;-58
2022/04/26 05:20:22;;;;;;;25.08;13.30;;;;;;;;;;6329532;22;20007;-57
2022/04/26 05:25:35;;;;;;;34.33;14.10;;;;;;;;;;6327939;22;20022;-57
2022/04/26 05:28:03;;;;;;;39.17;13.05;;;;;;;;;;6328620;22;20015;-58
2022/04/26 05:30:29;;;;;;;26.05;13.20;;;;;;;;;;6328073;22;20049;-58
2022/04/26 05:32:54;;;;;;;25.35;12.82;;;;;;;;;;6328424;22;20019;-57
2022/04/26 05:35:21;;;;;;;25.42;13.32;;;;;;;;;;6328244;22;20022;-56
2022/04/26 05:37:46;;;;;;;26.95;13.35;;;;;;;;;;6329269;22;20006;-57
2022/04/26 05:40:11;;;;;;;30.58;12.80;;;;;;;;;;6328769;22;20068;-53
2022/04/26 05:42:38;;;;;;;29.30;13.48;;;;;;;;;;6299337;22;20026;-58
2022/04/26 05:45:03;;;;;;;44.50;13.55;;;;;;;;;;6329164;22;20031;-56
2022/04/26 05:47:28;;;;;;;25.42;12.30;;;;;;;;;;6327750;22;20077;-57
2022/04/26 05:49:55;;;;;;;29.45;12.55;;;;;;;;;;6328493;22;20586;-55
2022/04/26 05:52:20;;;;;;;37.60;13.75;;;;;;;;;;6327122;22;20011;-57
2022/04/26 05:54:45;;;;;;;23.05;11.55;;;;;;;;;;6329229;22;20007;-55
2022/04/26 05:57:11;;;;;;;32.65;14.13;;;;;;;;;;6326724;22;20021;-58
2022/04/26 05:59:36;;;;;;;24.77;13.07;;;;;;;;;;6329087;22;20018;-57
2022/04/26 06:02:01;;;;;;;23.60;12.57;;;;;;;;;;6327786;22;20014;-57
2022/04/26 06:04:27;;;;;;;25.00;12.38;;;;;;;;;;6328271;22;20011;-57
2022/04/26 06:06:52;;;;;;;26.67;12.98;;;;;;;;;;6327566;22;20029;-56
2022/04/26 06:09:19;;;;;;;22.63;12.90;;;;;;;;;;6321433;22;20011;-55
2022/04/26 06:11:44;;;;;;;25.38;10.90;;;;;;;;;;6323361;22;20033;-57
2022/04/26 06:14:09;;;;;;;18.20;10.77;;;;;;;;;;6327795;22;20656;-58
2022/04/26 06:16:35;;;;;;;23.80;11.73;;;;;;;;;;6326169;22;20056;-54
2022/04/26 06:19:00;;;;;;;16.92;10.50;;;;;;;;;;6329350;22;20018;-57
2022/04/26 06:21:26;;;;;;;25.35;10.70;;;;;;;;;;6325692;22;20062;-56
2022/04/26 06:23:51;;;;;;;28.77;12.50;;;;;;;;;;6329767;22;20059;-57
2022/04/26 06:26:16;;;;;;;25.08;12.75;;;;;;;;;;6325752;22;20015;-56
2022/04/26 06:28:42;;;;;;;23.48;12.13;;;;;;;;;;6300808;22;20015;-55
2022/04/26 06:31:07;;;;;;;34.08;14.32;;;;;;;;;;6326724;22;20140;-57
2022/04/26 06:33:35;;;;;;;27.35;12.45;;;;;;;;;;6325644;22;20014;-56
2022/04/26 06:36:00;;;;;;;23.42;10.98;;;;;;;;;;6327980;22;20078;-56
2022/04/26 06:38:26;;;;;;;29.27;12.73;;;;;;;;;;6326245;22;20015;-56
2022/04/26 06:40:52;;;;;;;29.00;12.30;;;;;;;;;;6329573;22;20380;-58
2022/04/26 06:43:17;;;;;;;22.52;10.88;;;;;;;;;;6329606;22;20019;-58
2022/04/26 06:45:44;;;;;;;28.48;11.75;;;;;;;;;;6331220;22;20019;-57
2022/04/26 06:48:10;;;;;;;27.58;10.38;;;;;;;;;;6329778;22;20102;-57
2022/04/26 06:50:35;;;;;;;24.17;12.68;;;;;;;;;;6328093;22;20007;-57
2022/04/26 06:53:00;;;;;;;26.83;11.50;;;;;;;;;;6328807;22;20018;-57
2022/04/26 06:55:26;;;;;;;28.13;12.13;;;;;;;;;;6329902;22;20011;-55
2022/04/26 06:57:51;;;;;;;24.50;10.55;;;;;;;;;;6331553;22;20011;-56
2022/04/26 07:00:16;;;;;;;22.17;11.68;;;;;;;;;;6327418;22;20075;-57
2022/04/26 07:02:42;;;;;;;22.40;12.35;;;;;;;;;;6332342;22;20154;-57
2022/04/26 07:05:08;;;;;;;30.80;11.90;;;;;;;;;;6328969;22;20076;-57
2022/04/26 07:07:33;;;;;;;18.13;11.02;;;;;;;;;;6330276;22;20484;-55
2022/04/26 07:09:58;;;;;;;23.42;11.52;;;;;;;;;;6328400;22;20007;-57
2022/04/26 07:12:24;;;;;;;28.08;12.65;;;;;;;;;;6329484;22;20030;-56
2022/04/26 07:14:49;;;;;;;23.05;11.27;;;;;;;;;;6321314;22;20011;-57
2022/04/26 07:17:17;;;;;;;20.10;11.43;;;;;;;;;;6321882;22;20007;-55
2022/04/26 07:19:42;;;;;;;22.80;11.13;;;;;;;;;;6330765;22;20040;-56
2022/04/26 07:22:09;;;;;;;22.83;11.15;;;;;;;;;;6327795;22;20011;-56
2022/04/26 07:24:35;;;;;;;23.90;11.85;;;;;;;;;;6327491;22;20015;-58
2022/04/26 07:27:01;;;;;;;26.55;11.15;;;;;;;;;;6301056;22;20033;-58
2022/04/26 07:29:26;;;;;;;19.08;10.18;;;;;;;;;;6326603;22;20007;-58
2022/04/26 07:31:51;;;;;;;17.42;9.70;;;;;;;;;;6329433;22;20006;-58
2022/04/26 07:34:24;;;;;;;20.40;11.82;;;;;;;;;;6325606;22;20015;-58
2022/04/26 07:36:53;;;;;;;20.48;10.40;;;;;;;;;;6328994;22;20018;-59
2022/04/26 07:39:19;;;;;;;22.17;9.05;;;;;;;;;;6328532;22;20011;-57
2022/04/26 07:41:47;;;;;;;17.88;8.93;;;;;;;;;;6330238;22;20044;-58
2022/04/26 07:44:13;;;;;;;20.33;8.95;;;;;;;;;;6327227;22;20563;-56
2022/04/26 07:46:39;;;;;;;25.63;9.18;;;;;;;;;;6329822;22;20046;-57
2022/04/26 07:49:05;;;;;;;15.02;7.15;;;;;;;;;;6326846;22;20022;-57
2022/04/26 07:51:31;;;;;;;14.70;8.45;;;;;;;;;;6326491;22;20444;-57
2022/04/26 07:53:56;;;;;;;25.88;9.27;;;;;;;;;;6328730;22;20015;-55
2022/04/26 07:56:21;;;;;;;11.98;7.50;;;;;;;;;;6323742;22;20018;-57
2022/04/26 07:58:47;;;;;;;18.65;7.72;;;;;;;;;;6325020;22;20468;-58
2022/04/26 08:01:12;;;;;;;14.90;6.72;;;;;;;;;;6324317;22;20509;-57
2022/04/26 08:03:37;;;;;;;14.35;7.38;;;;;;;;;;6324413;22;20388;-56
2022/04/26 08:06:02;;;;;;;15.38;7.55;;;;;;;;;;6325835;22;20113;-58
2022/04/26 08:08:28;;;;;;;12.75;6.68;;;;;;;;;;6322938;22;20846;-57
2022/04/26 08:10:53;;;;;;;12.30;6.07;;;;;;;;;;6325723;22;20026;-56
2022/04/26 08:13:18;;;;;;;11.43;6.00;;;;;;;;;;6323649;22;20018;-57
2022/04/26 08:15:44;;;;;;;15.77;6.28;;;;;;;;;;6326346;22;20017;-57
2022/04/26 08:18:11;;;;;;;13.55;5.90;;;;;;;;;;6320147;22;20018;-57
2022/04/26 08:20:37;;;;;;;15.00;6.70;;;;;;;;;;6325144;22;20548;-56
2022/04/26 08:23:02;;;;;;;11.13;5.95;;;;;;;;;;6325582;22;20017;-57
2022/04/26 08:28:12;;;;;;;12.18;6.07;;;;;;;;;;6327061;22;20033;-56
2022/04/26 08:30:37;;;;;;;11.35;6.13;;;;;;;;;;6329975;22;20011;-56
2022/04/26 08:33:02;;;;;;;10.60;6.68;;;;;;;;;;6328791;22;20086;-58
2022/04/26 08:35:28;;;;;;;10.65;5.10;;;;;;;;;;6329305;22;20014;-57
2022/04/26 08:37:53;;;;;;;11.63;5.45;;;;;;;;;;6328401;22;20023;-57
2022/04/26 08:40:19;;;;;;;8.50;4.47;;;;;;;;;;6327435;22;20068;-57
2022/04/26 08:42:46;;;;;;;9.15;4.88;;;;;;;;;;6329778;22;20006;-57
2022/04/26 08:45:15;;;;;;;9.23;5.20;;;;;;;;;;6328705;22;20022;-50
2022/04/26 08:53:09;;;;;;;14.57;6.32;;;;;;;;;;6329233;22;20017;-58
2022/04/26 08:55:44;;;;;;;8.30;5.18;;;;;;;;;;6326377;22;20030;-57
2022/04/26 08:58:11;;;;;;;10.90;5.18;;;;;;;;;;6328843;22;20393;-57
2022/04/26 09:00:37;;;;;;;6.47;2.72;;;;;;;;;;6325749;22;20011;-58
2022/04/26 09:03:03;;;;;;;8.85;4.05;;;;;;;;;;6328636;22;20003;-57
2022/04/26 09:05:29;;;;;;;7.53;4.28;;;;;;;;;;6327344;22;20048;-57
2022/04/26 09:07:54;;;;;;;9.32;3.65;;;;;;;;;;6328775;22;20031;-57
2022/04/26 09:10:20;;;;;;;6.80;3.95;;;;;;;;;;6326564;22;20062;-55
2022/04/26 09:13:04;;;;;;;14.35;5.70;;;;;;;;;;6329951;22;20011;-57
2022/04/26 09:15:49;;;;;;;5.38;3.70;;;;;;;;;;6328646;22;20014;-54
2022/04/26 09:18:17;;;;;;;6.47;3.38;;;;;;;;;;6299549;22;20015;-57
2022/04/26 09:20:43;;;;;;;8.38;3.95;;;;;;;;;;6330093;22;20017;-56
2022/04/26 09:23:15;;;;;;;6.82;3.08;;;;;;;;;;6327108;22;20007;-58
2022/04/26 09:25:41;;;;;;;6.30;3.92;;;;;;;;;;6329363;22;20082;-57
2022/04/26 09:28:07;;;;;;;5.57;3.50;;;;;;;;;;6326859;22;20022;-58
2022/04/26 09:30:33;;;;;;;9.02;3.45;;;;;;;;;;6328600;22;20067;-58
2022/04/26 09:32:58;;;;;;;4.43;3.33;;;;;;;;;;6327398;22;20010;-57
2022/04/26 09:35:28;;;;;;;7.85;3.50;;;;;;;;;;6329338;22;20015;-57
2022/04/26 09:37:53;;;;;;;4.53;2.58;;;;;;;;;;6327920;22;20018;-58
2022/04/26 09:40:20;;;;;;;5.80;3.08;;;;;;;;;;6326505;22;20011;-58
2022/04/26 09:42:47;;;;;;;7.82;3.80;;;;;;;;;;6300575;22;20014;-58
2022/04/26 09:45:15;;;;;;;9.05;3.20;;;;;;;;;;6325697;22;20015;-57
2022/04/26 09:47:41;;;;;;;8.15;3.40;;;;;;;;;;6328881;22;20019;-56
2022/04/26 09:50:09;;;;;;;8.98;3.42;;;;;;;;;;6326403;22;20034;-56
2022/04/26 09:52:35;;;;;;;6.72;3.53;;;;;;;;;;6326947;22;20010;-58
2022/04/26 09:55:01;;;;;;;6.97;2.92;;;;;;;;;;6328395;22;19999;-57
2022/04/26 09:57:28;;;;;;;8.13;3.92;;;;;;;;;;6325900;22;20066;-57
2022/04/26 09:59:53;;;;;;;6.53;3.85;;;;;;;;;;6327414;22;20210;-57
2022/04/26 10:02:19;;;;;;;13.10;3.20;;;;;;;;;;6327167;22;20384;-55
2022/04/26 10:04:47;;;;;;;5.97;2.92;;;;;;;;;;6329013;22;20003;-57
2022/04/26 10:07:13;;;;;;;5.40;3.90;;;;;;;;;;6327075;22;20019;-57
2022/04/26 10:09:39;;;;;;;9.50;3.47;;;;;;;;;;6328211;22;20022;-58
2022/04/26 10:12:04;;;;;;;6.03;3.08;;;;;;;;;;6328127;22;20019;-57
2022/04/26 10:14:30;;;;;;;5.38;3.10;;;;;;;;;;6328352;22;20011;-58
2022/04/26 10:16:56;;;;;;;5.53;2.47;;;;;;;;;;6328008;22;20018;-58
2022/04/26 10:19:35;;;;;;;4.72;2.92;;;;;;;;;;6322439;22;20021;-57
2022/04/26 10:22:01;;;;;;;4.38;2.95;;;;;;;;;;6329244;22;20021;-58
2022/04/26 10:24:26;;;;;;;4.13;2.30;;;;;;;;;;6325650;22;20109;-58
2022/04/26 10:26:52;;;;;;;5.85;2.85;;;;;;;;;;6329787;22;20015;-58
2022/04/26 10:29:17;;;;;;;3.58;2.20;;;;;;;;;;6326241;22;20073;-57
2022/04/26 10:31:44;;;;;;;4.03;2.72;;;;;;;;;;6301579;22;19999;-58
2022/04/26 10:34:31;;;;;;;6.28;3.25;;;;;;;;;;6327739;22;20031;-59
2022/04/26 10:36:57;;;;;;;5.75;3.47;;;;;;;;;;6328286;22;20082;-58
2022/04/26 10:39:22;;;;;;;4.25;2.90;;;;;;;;;;6327088;22;20011;-56
2022/04/26 10:41:47;;;;;;;4.75;2.90;;;;;;;;;;6329778;22;20007;-58
2022/04/26 10:44:12;;;;;;;8.60;3.63;;;;;;;;;;6325591;22;20043;-58
2022/04/26 10:46:38;;;;;;;4.13;3.00;;;;;;;;;;6328791;22;20067;-57
2022/04/26 10:49:23;;;;;;;2.90;2.70;;;;;;;;;;6326126;22;20015;-58
2022/04/26 10:51:51;;;;;;;6.22;3.08;;;;;;;;;;6325665;22;20003;-58
2022/04/26 10:54:36;;;;;;;9.75;3.50;;;;;;;;;;6327295;22;20011;-56
2022/04/26 10:57:02;;;;;;;11.38;3.63;;;;;;;;;;6326319;22;20034;-55
2022/04/26 10:59:27;;;;;;;5.18;2.72;;;;;;;;;;6328871;22;20022;-55
2022/04/26 11:01:54;;;;;;;3.42;2.20;;;;;;;;;;6293705;22;20011;-56
2022/04/26 11:04:20;;;;;;;3.72;2.60;;;;;;;;;;6327383;22;20457;-55
2022/04/26 11:06:45;;;;;;;3.67;2.53;;;;;;;;;;6327279;22;20042;-56
2022/04/26 11:09:14;;;;;;;4.20;2.50;;;;;;;;;;6328747;22;20018;-56
2022/04/26 11:11:49;;;;;;;3.53;2.70;;;;;;;;;;6327082;22;20011;-55
2022/04/26 11:14:20;;;;;;;5.50;2.65;;;;;;;;;;6327858;22;20010;-57
2022/04/26 11:17:00;;;;;;;4.43;2.42;;;;;;;;;;6327509;22;20540;-57
2022/04/26 11:19:33;;;;;;;4.03;2.88;;;;;;;;;;6328282;22;20042;-55
2022/04/26 11:22:07;;;;;;;7.70;3.75;;;;;;;;;;6327909;22;20022;-58
2022/04/26 11:30:00;;;;;;;4.43;2.80;;;;;;;;;;6328741;22;20029;-56
2022/04/26 11:32:33;;;;;;;3.45;2.70;;;;;;;;;;6328857;22;20019;-58
2022/04/26 11:34:58;;;;;;;4.47;3.33;;;;;;;;;;6328966;22;20056;-57
2022/04/26 11:37:23;;;;;;;5.05;2.95;;;;;;;;;;6328672;22;20010;-58
2022/04/26 11:39:49;;;;;;;8.18;2.63;;;;;;;;;;6330280;22;20052;-57
2022/04/26 11:42:14;;;;;;;6.05;2.72;;;;;;;;;;6327105;22;20341;-58
2022/04/26 11:44:55;;;;;;;6.32;3.00;;;;;;;;;;6329627;22;20019;-55
2022/04/26 11:47:20;;;;;;;4.32;2.83;;;;;;;;;;6326192;22;20046;-59
2022/04/26 11:49:45;;;;;;;3.90;2.85;;;;;;;;;;6330012;22;20414;-58
2022/04/26 11:52:10;;;;;;;6.85;2.88;;;;;;;;;;6328095;22;20242;-59
2022/04/26 11:54:36;;;;;;;5.90;3.85;;;;;;;;;;6329084;22;20703;-58
2022/04/26 11:57:03;;;;;;;5.90;2.38;;;;;;;;;;6329304;22;20015;-58
2022/04/26 11:59:28;;;;;;;6.72;3.60;;;;;;;;;;6329726;22;20018;-58
2022/04/26 12:01:53;;;;;;;6.47;3.30;;;;;;;;;;6329147;22;20020;-61
2022/04/26 12:04:19;;;;;;;6.15;3.15;;;;;;;;;;6326995;22;20353;-57
2022/04/26 12:06:44;;;;;;;6.57;3.63;;;;;;;;;;6327004;22;20217;-58
2022/04/26 12:09:12;;;;;;;4.75;3.13;;;;;;;;;;6329266;22;20010;-56
2022/04/26 12:11:38;;;;;;;7.25;3.05;;;;;;;;;;6327433;22;20018;-58
2022/04/26 12:14:08;;;;;;;3.97;2.65;;;;;;;;;;6326498;22;20078;-57
2022/04/26 12:16:33;;;;;;;;;;;;;;;;;;6323810;22;20011;-59
2022/04/26 12:19:03;;;;;;;6.53;3.60;;;;;;;;;;6327201;22;19968;-58
2022/04/26 12:21:42;;;;;;;4.95;3.75;;;;;;;;;;6323086;22;20011;-59
2022/04/26 12:24:09;;;;;;;5.32;3.10;;;;;;;;;;6322755;22;20015;-58
2022/04/26 12:26:35;;;;;;;6.57;3.60;;;;;;;;;;6323480;22;20602;-57
2022/04/26 12:29:01;;;;;;;4.93;3.20;;;;;;;;;;6322311;22;20475;-57
2022/04/26 12:31:29;;;;;;;8.98;3.33;;;;;;;;;;6324951;22;20026;-59
2022/04/26 12:34:14;;;;;;;3.90;2.75;;;;;;;;;;6320702;22;20042;-57
2022/04/26 12:36:58;;;;;;;5.43;3.30;;;;;;;;;;6322706;22;20140;-57
2022/04/26 12:39:44;;;;;;;5.72;2.92;;;;;;;;;;6325562;22;20015;-58
2022/04/26 12:42:10;;;;;;;5.75;2.85;;;;;;;;;;6297451;22;20710;-58
2022/04/26 12:44:39;;;;;;;5.97;3.40;;;;;;;;;;6328596;22;20245;-58
2022/04/26 12:53:28;;;;;;;5.55;2.38;;;;;;;;;;6142826;23;20013;-58
2022/04/26 12:55:54;;;;;;;4.47;3.03;;;;;;;;;;6307637;22;20012;-57
2022/04/26 12:58:35;;;;;;;3.88;2.67;;;;;;;;;;6327832;22;20543;-56
2022/04/26 13:01:01;;;;;;;5.25;2.90;;;;;;;;;;6329194;22;20005;-58
2022/04/26 13:03:27;;;;;;;4.68;2.08;;;;;;;;;;6327116;22;20046;-58
2022/04/26 13:06:03;;;;;;;6.38;2.67;;;;;;;;;;6329312;22;20843;-58
2022/04/26 13:08:28;;;;;;;3.88;2.83;;;;;;;;;;6325910;22;20052;-58
2022/04/26 13:10:54;;;;;;;5.95;2.67;;;;;;;;;;6329331;22;20023;-58
2022/04/26 13:13:20;;;;;;;4.53;2.67;;;;;;;;;;6326457;22;20026;-56
2022/04/26 13:15:45;;;;;;;3.70;2.47;;;;;;;;;;6327543;22;20014;-58
2022/04/26 13:18:12;;;;;;;5.55;2.58;;;;;;;;;;6300128;22;20038;-57
2022/04/26 13:20:38;;;;;;;4.90;2.13;;;;;;;;;;6329035;22;20011;-58
2022/04/26 13:23:03;;;;;;;3.10;1.75;;;;;;;;;;6328498;22;20032;-59
2022/04/26 13:25:29;;;;;;;3.95;2.50;;;;;;;;;;6329326;22;20038;-59
2022/04/26 13:27:54;;;;;;;3.42;2.38;;;;;;;;;;6326754;22;20030;-59
2022/04/26 13:30:19;;;;;;;5.70;2.15;;;;;;;;;;6326240;22;20018;-57
2022/04/26 13:32:45;;;;;;;4.18;2.55;;;;;;;;;;6329194;22;20006;-58
2022/04/26 13:35:10;;;;;;;3.88;2.33;;;;;;;;;;6327005;22;20081;-59
2022/04/26 13:37:38;;;;;;;4.28;2.33;;;;;;;;;;6328254;22;20466;-59
2022/04/26 13:40:04;;;;;;;2.95;2.33;;;;;;;;;;6327622;22;20176;-59
2022/04/26 13:42:32;;;;;;;5.22;3.08;;;;;;;;;;6326289;22;20126;-59
2022/04/26 13:44:58;;;;;;;8.07;2.55;;;;;;;;;;6328414;22;20023;-57
2022/04/26 13:47:23;;;;;;;3.33;2.45;;;;;;;;;;6298496;22;20468;-57
2022/04/26 13:49:49;;;;;;;3.28;2.10;;;;;;;;;;6328305;22;20007;-59
2022/04/26 13:52:15;;;;;;;4.07;2.25;;;;;;;;;;6327179;22;20245;-57
2022/04/26 13:54:42;;;;;;;3.53;2.65;;;;;;;;;;6328775;22;20010;-57
2022/04/26 13:57:07;;;;;;;3.15;2.40;;;;;;;;;;6327258;22;20490;-57
2022/04/26 13:59:33;;;;;;;4.25;2.10;;;;;;;;;;6329186;22;20007;-58
2022/04/26 14:01:58;;;;;;;4.75;2.60;;;;;;;;;;6324709;22;20033;-57
2022/04/26 14:04:23;;;;;;;3.03;2.55;;;;;;;;;;6328316;22;20018;-57
2022/04/26 14:06:49;;;;;;;6.53;3.05;;;;;;;;;;6326431;22;20019;-58
2022/04/26 14:09:14;;;;;;;4.03;3.10;;;;;;;;;;6325403;22;20011;-57
2022/04/26 14:11:40;;;;;;;6.45;3.33;;;;;;;;;;6327225;22;20006;-56
2022/04/26 14:22:18;;;;;;;4.72;2.80;;;;;;;;;;6328203;22;20041;-59
2022/04/26 14:24:43;;;;;;;6.00;3.58;;;;;;;;;;6327677;22;20011;-57
2022/04/26 14:27:09;;;;;;;4.20;3.67;;;;;;;;;;6301109;22;20026;-57
2022/04/26 14:29:34;;;;;;;4.93;2.75;;;;;;;;;;6326163;22;20011;-56
2022/04/26 14:31:59;;;;;;;4.32;2.80;;;;;;;;;;6328981;22;20010;-55
2022/04/26 14:34:25;;;;;;;11.20;3.80;;;;;;;;;;6326613;22;20070;-56
2022/04/26 14:36:50;;;;;;;7.13;3.63;;;;;;;;;;6324174;22;20015;-57
2022/04/26 14:39:16;;;;;;;12.50;3.58;;;;;;;;;;6324277;22;20474;-57
2022/04/26 14:41:44;;;;;;;8.68;3.92;;;;;;;;;;6328921;22;20688;-57
2022/04/26 14:44:09;;;;;;;9.18;3.38;;;;;;;;;;6324265;22;20023;-57
2022/04/26 14:46:35;;;;;;;5.65;3.20;;;;;;;;;;6328417;22;20025;-58
2022/04/26 14:49:00;;;;;;;7.18;3.88;;;;;;;;;;6325945;22;20041;-57
2022/04/26 14:51:26;;;;;;;4.80;3.05;;;;;;;;;;6328813;22;20014;-57
2022/04/26 14:53:51;;;;;;;7.38;3.17;;;;;;;;;;6328305;22;20031;-57
2022/04/26 14:56:17;;;;;;;5.63;4.00;;;;;;;;;;6327718;22;20049;-57
2022/04/26 14:58:42;;;;;;;4.85;3.65;;;;;;;;;;6327890;22;20011;-57
2022/04/26 15:01:07;;;;;;;6.90;3.53;;;;;;;;;;6329566;22;20364;-57
2022/04/26 15:03:33;;;;;;;6.07;4.00;;;;;;;;;;6328791;22;20007;-57
2022/04/26 15:05:59;;;;;;;7.47;3.45;;;;;;;;;;6330676;22;20010;-58
2022/04/26 15:11:08;;;;;;;3.67;2.88;;;;;;;;;;6329999;22;20388;-56
2022/04/26 15:19:01;;;;;;;4.40;3.33;;;;;;;;;;6330478;22;20014;-58
2022/04/26 15:21:27;;;;;;;5.95;3.05;;;;;;;;;;6328836;22;20730;-58
2022/04/26 15:23:56;;;;;;;4.13;2.70;;;;;;;;;;6330067;22;20002;-58
2022/04/26 15:26:22;;;;;;;5.40;2.90;;;;;;;;;;6328310;22;20017;-58
2022/04/26 15:28:47;;;;;;;3.50;2.05;;;;;;;;;;6329053;22;20007;-58
2022/04/26 15:31:16;;;;;;;4.95;2.65;;;;;;;;;;6328040;22;20022;-57
2022/04/26 15:33:43;;;;;;;4.85;2.60;;;;;;;;;;6329906;22;20073;-57
2022/04/26 15:36:09;;;;;;;5.03;3.33;;;;;;;;;;6329123;22;20094;-57
2022/04/26 15:38:34;;;;;;;2.67;2.22;;;;;;;;;;6329394;22;20344;-58
2022/04/26 15:41:05;;;;;;;6.25;2.75;;;;;;;;;;6329695;22;20030;-58
2022/04/26 15:43:31;;;;;;;3.30;2.35;;;;;;;;;;6329962;22;20458;-58
2022/04/26 15:45:56;;;;;;;5.40;2.90;;;;;;;;;;6329193;22;20014;-58
2022/04/26 15:48:24;;;;;;;5.20;2.67;;;;;;;;;;6328880;22;20071;-58
2022/04/26 15:50:49;;;;;;;4.75;2.20;;;;;;;;;;6301577;22;20058;-58
2022/04/26 15:53:14;;;;;;;6.55;2.58;;;;;;;;;;6328615;22;20018;-59
2022/04/26 15:55:39;;;;;;;3.78;2.75;;;;;;;;;;6329498;22;20011;-56
2022/04/26 15:58:05;;;;;;;6.72;2.67;;;;;;;;;;6325213;22;20093;-58
2022/04/26 16:00:31;;;;;;;8.10;2.70;;;;;;;;;;6328435;22;20018;-57
2022/04/26 16:02:56;;;;;;;3.97;2.92;;;;;;;;;;6328412;22;20070;-59
2022/04/26 16:05:21;;;;;;;3.58;2.63;;;;;;;;;;6329129;22;20015;-58
2022/04/26 16:07:47;;;;;;;8.30;2.08;;;;;;;;;;6325388;22;20045;-58
2022/04/26 16:21:08;;;;;;;4.25;2.63;;;;;;;;;;6330655;22;20045;-58
2022/04/26 16:23:33;;;;;;;4.53;2.30;;;;;;;;;;6327926;22;20010;-58
2022/04/26 16:26:02;;;;;;;7.43;2.55;;;;;;;;;;6330269;22;20010;-59
2022/04/26 16:28:30;;;;;;;4.15;2.97;;;;;;;;;;6327212;22;20128;-58
2022/04/26 16:30:55;;;;;;;5.18;2.53;;;;;;;;;;6327190;22;20013;-58
2022/04/26 16:33:21;;;;;;;7.28;3.00;;;;;;;;;;6326959;22;20476;-57
2022/04/26 16:35:46;;;;;;;4.78;2.65;;;;;;;;;;6329754;22;20109;-58
2022/04/26 16:38:11;;;;;;;8.80;2.80;;;;;;;;;;6327137;22;20066;-57
2022/04/26 16:40:37;;;;;;;7.57;2.47;;;;;;;;;;6327961;22;20018;-58
2022/04/26 16:43:02;;;;;;;6.32;2.55;;;;;;;;;;6329197;22;20057;-58
2022/04/26 16:45:28;;;;;;;3.40;2.22;;;;;;;;;;6328559;22;20018;-58
2022/04/26 16:47:53;;;;;;;2.58;1.90;;;;;;;;;;6328799;22;20022;-58
2022/04/26 16:50:19;;;;;;;4.43;2.28;;;;;;;;;;6299365;22;20027;-58
2022/04/26 16:52:46;;;;;;;5.15;2.50;;;;;;;;;;6329376;22;20011;-57
2022/04/26 16:55:11;;;;;;;2.88;2.10;;;;;;;;;;6324875;22;20026;-59
2022/04/26 16:57:36;;;;;;;3.03;2.30;;;;;;;;;;6326488;22;20003;-58
2022/04/26 17:00:03;;;;;;;3.42;2.40;;;;;;;;;;6329477;22;20011;-58
2022/04/26 17:02:30;;;;;;;3.13;2.08;;;;;;;;;;6325241;22;20492;-58
2022/04/26 17:04:55;;;;;;;3.95;2.42;;;;;;;;;;6326085;22;20441;-58
2022/04/26 17:07:21;;;;;;;5.57;2.40;;;;;;;;;;6327664;22;20019;-59
2022/04/26 17:09:46;;;;;;;2.88;1.90;;;;;;;;;;6326881;22;20011;-58
2022/04/26 17:12:12;;;;;;;3.25;2.60;;;;;;;;;;6324003;22;20112;-58
2022/04/26 17:14:39;;;;;;;5.07;2.20;;;;;;;;;;6328637;22;20437;-58
2022/04/26 17:17:04;;;;;;;4.25;2.10;;;;;;;;;;6325291;22;20010;-58
2022/04/26 17:19:30;;;;;;;4.45;1.85;;;;;;;;;;6328071;22;20018;-59
2022/04/26 17:21:56;;;;;;;3.70;2.40;;;;;;;;;;6328157;22;20449;-59
2022/04/26 17:27:06;;;;;;;2.70;2.28;;;;;;;;;;6328652;22;20301;-58
2022/04/26 17:29:31;;;;;;;3.67;2.50;;;;;;;;;;6326320;22;20010;-58
2022/04/26 17:31:57;;;;;;;4.40;1.92;;;;;;;;;;6329148;22;20011;-58
2022/04/26 17:34:23;;;;;;;3.20;2.28;;;;;;;;;;6327216;22;20010;-58
2022/04/26 17:36:48;;;;;;;3.53;2.65;;;;;;;;;;6328579;22;20060;-58
2022/04/26 17:39:14;;;;;;;2.85;2.15;;;;;;;;;;6299018;22;20022;-58
2022/04/26 17:41:40;;;;;;;6.18;2.33;;;;;;;;;;6328574;22;20339;-58
2022/04/26 17:44:06;;;;;;;4.25;2.45;;;;;;;;;;6326296;22;20480;-58
2022/04/26 17:46:31;;;;;;;8.15;2.58;;;;;;;;;;6327665;22;20058;-58
2022/04/26 17:48:57;;;;;;;3.75;2.20;;;;;;;;;;6327729;22;20030;-58
2022/04/26 17:51:22;;;;;;;3.83;2.67;;;;;;;;;;6326274;22;20010;-58
2022/04/26 17:56:33;;;;;;;3.97;1.88;;;;;;;;;;6327849;22;20022;-58
2022/04/26 17:58:58;;;;;;;2.55;2.17;;;;;;;;;;6327735;22;20011;-58
2022/04/26 18:01:23;;;;;;;2.90;2.05;;;;;;;;;;6327327;22;20019;-57
2022/04/26 18:03:49;;;;;;;5.90;2.20;;;;;;;;;;6328196;22;20010;-58
2022/04/26 18:06:14;;;;;;;3.85;1.95;;;;;;;;;;6326436;22;20023;-58
2022/04/26 18:08:41;;;;;;;5.10;2.15;;;;;;;;;;6325858;22;20025;-56
2022/04/26 18:11:08;;;;;;;6.38;1.95;;;;;;;;;;6327995;22;20007;-58
2022/04/26 18:13:34;;;;;;;3.85;1.80;;;;;;;;;;6328793;22;20136;-58
2022/04/26 18:15:59;;;;;;;3.88;2.25;;;;;;;;;;6328561;22;20015;-58
2022/04/26 18:18:25;;;;;;;4.53;2.30;;;;;;;;;;6327695;22;20095;-58
2022/04/26 18:20:51;;;;;;;4.75;1.83;;;;;;;;;;6329581;22;20003;-59
2022/04/26 18:23:16;;;;;;;5.93;2.08;;;;;;;;;;6321263;22;20011;-59
2022/04/26 18:28:25;;;;;;;5.95;2.22;;;;;;;;;;6326974;22;20053;-58
2022/04/26 18:30:51;;;;;;;5.53;2.50;;;;;;;;;;6326182;22;20006;-59
2022/04/26 18:33:16;;;;;;;2.45;1.50;;;;;;;;;;6327369;22;20019;-59
2022/04/26 18:35:41;;;;;;;6.20;1.90;;;;;;;;;;6298196;22;20148;-58
2022/04/26 18:38:07;;;;;;;2.75;2.38;;;;;;;;;;6322073;22;20017;-59
2022/04/26 18:40:32;;;;;;;2.45;2.20;;;;;;;;;;6323103;22;20021;-59
2022/04/26 18:42:58;;;;;;;7.57;2.97;;;;;;;;;;6323344;22;20063;-59
2022/04/26 18:45:25;;;;;;;2.88;2.08;;;;;;;;;;6320849;22;20015;-59
2022/04/26 18:47:51;;;;;;;5.63;2.50;;;;;;;;;;6296457;22;20074;-59
2022/04/26 18:50:16;;;;;;;5.35;2.65;;;;;;;;;;6319026;22;20019;-59
2022/04/26 18:52:42;;;;;;;3.35;2.00;;;;;;;;;;6293439;22;20014;-59
2022/04/26 18:55:08;;;;;;;3.72;2.30;;;;;;;;;;6322221;22;20063;-59
2022/04/26 18:57:33;;;;;;;5.68;3.10;;;;;;;;;;6324510;22;19999;-59
2022/04/26 18:59:58;;;;;;;4.25;2.33;;;;;;;;;;6318315;22;20080;-59
2022/04/26 19:02:24;;;;;;;3.53;2.45;;;;;;;;;;6303630;22;20391;-59
2022/04/26 19:04:49;;;;;;;7.07;3.45;;;;;;;;;;6314577;22;20081;-59